sensor_id;sensor_type;location;lat;lon;timestamp;pressure;altitude;pressure_sealevel;temperature;humidity
25658;BME280;13517;59.320;18.042;2023-12-22T00:02:04;95825.50;;;0.26;100.00
25658;BME280;13517;59.320;18.042;2023-12-22T00:04:30;95827.06;;;0.37;100.00
25658;BME280;13517;59.320;18.042;2023-12-22T00:06:55;95841.84;;;0.40;100.00
25658;BME280;13517;59.320;18.042;2023-12-22T00:09:20;95850.63;;;0.40;100.00
25658;BME280;13517;59.320;18.042;2023-12-22T00:11:46;95844.94;;;0.35;100.00
25658;BME280;13517;59.320;18.042;2023-12-22T00:14:11;95852.63;;;0.38;100.00
25658;BME280;13517;59.320;18.042;2023-12-22T00:16:37;95843.28;;;0.34;100.00
25658;BME280;13517;59.320;18.042;2023-12-22T00:19:03;95849.28;;;0.36;100.00
25658;BME280;13517;59.320;18.042;2023-12-22T00:21:29;95847.78;;;0.34;100.00
25658;BME280;13517;59.320;18.042;2023-12-22T00:23:54;95838.25;;;0.23;100.00
25658;BME280;13517;59.320;18.042;2023-12-22T00:26:20;95857.56;;;0.33;100.00
25658;BME280;13517;59.320;18.042;2023-12-22T00:28:45;95852.56;;;0.30;100.00
25658;BME280;13517;59.320;18.042;2023-12-22T00:31:10;95843.63;;;0.31;100.00
25658;BME280;13517;59.320;18.042;2023-12-22T00:33:38;95861.19;;;0.32;100.00
25658;BME280;13517;59.320;18.042;2023-12-22T00:36:03;95865.31;;;0.26;100.00
25658;BME280;13517;59.320;18.042;2023-12-22T00:38:29;95836.94;;;0.27;100.00
25658;BME280;13517;59.320;18.042;2023-12-22T00:40:55;95846.41;;;0.30;100.00
25658;BME280;13517;59.320;18.042;2023-12-22T00:43:20;95836.75;;;0.20;100.00
25658;BME280;13517;59.320;18.042;2023-12-22T00:45:46;95852.84;;;0.27;100.00
25658;BME280;13517;59.320;18.042;2023-12-22T00:48:11;95836.13;;;0.26;100.00
25658;BME280;13517;59.320;18.042;2023-12-22T00:50:37;95844.56;;;0.22;100.00
25658;BME280;13517;59.320;18.042;2023-12-22T00:53:02;95847.88;;;0.24;100.00
25658;BME280;13517;59.320;18.042;2023-12-22T00:55:27;95850.81;;;0.21;100.00
25658;BME280;13517;59.320;18.042;2023-12-22T00:57:53;95846.50;;;0.20;100.00
25658;BME280;13517;59.320;18.042;2023-12-22T01:00:18;95861.81;;;0.26;100.00
25658;BME280;13517;59.320;18.042;2023-12-22T01:02:44;95854.94;;;0.15;100.00
25658;BME280;13517;59.320;18.042;2023-12-22T01:05:09;95855.84;;;0.24;100.00
25658;BME280;13517;59.320;18.042;2023-12-22T01:07:35;95854.66;;;0.18;100.00
25658;BME280;13517;59.320;18.042;2023-12-22T01:10:01;95863.78;;;0.24;100.00
25658;BME280;13517;59.320;18.042;2023-12-22T01:12:28;95846.84;;;0.17;100.00
25658;BME280;13517;59.320;18.042;2023-12-22T01:14:55;95852.50;;;0.22;100.00
25658;BME280;13517;59.320;18.042;2023-12-22T01:17:21;95852.03;;;0.26;100.00
25658;BME280;13517;59.320;18.042;2023-12-22T01:19:46;95868.97;;;0.25;100.00
25658;BME280;13517;59.320;18.042;2023-12-22T01:22:11;95869.47;;;0.29;100.00
25658;BME280;13517;59.320;18.042;2023-12-22T01:24:37;95837.75;;;0.19;100.00
25658;BME280;13517;59.320;18.042;2023-12-22T01:27:06;95850.22;;;0.27;100.00
25658;BME280;13517;59.320;18.042;2023-12-22T01:29:31;95867.44;;;0.23;100.00
25658;BME280;13517;59.320;18.042;2023-12-22T01:31:57;95865.47;;;0.25;100.00
25658;BME280;13517;59.320;18.042;2023-12-22T01:34:22;95874.25;;;0.25;100.00
25658;BME280;13517;59.320;18.042;2023-12-22T01:36:48;95854.84;;;0.25;100.00
25658;BME280;13517;59.320;18.042;2023-12-22T01:39:15;95847.88;;;0.24;100.00
25658;BME280;13517;59.320;18.042;2023-12-22T01:41:40;95839.69;;;0.17;100.00
25658;BME280;13517;59.320;18.042;2023-12-22T01:44:06;95863.47;;;0.27;100.00
25658;BME280;13517;59.320;18.042;2023-12-22T01:46:31;95828.94;;;0.19;100.00
25658;BME280;13517;59.320;18.042;2023-12-22T01:48:58;95839.25;;;0.22;100.00
25658;BME280;13517;59.320;18.042;2023-12-22T01:51:27;95859.81;;;0.28;100.00
25658;BME280;13517;59.320;18.042;2023-12-22T01:53:53;95874.78;;;0.29;100.00
25658;BME280;13517;59.320;18.042;2023-12-22T01:56:18;95847.25;;;0.30;100.00
25658;BME280;13517;59.320;18.042;2023-12-22T01:58:44;95852.19;;;0.25;100.00
25658;BME280;13517;59.320;18.042;2023-12-22T02:01:10;95838.16;;;0.33;100.00
25658;BME280;13517;59.320;18.042;2023-12-22T02:03:36;95837.97;;;0.34;100.00
25658;BME280;13517;59.320;18.042;2023-12-22T02:06:02;95837.16;;;0.34;100.00
25658;BME280;13517;59.320;18.042;2023-12-22T02:08:31;95815.81;;;0.17;100.00
25658;BME280;13517;59.320;18.042;2023-12-22T02:10:58;95825.50;;;0.26;100.00
25658;BME280;13517;59.320;18.042;2023-12-22T02:13:23;95822.47;;;0.21;100.00
25658;BME280;13517;59.320;18.042;2023-12-22T02:15:56;95843.38;;;0.24;100.00
25658;BME280;13517;59.320;18.042;2023-12-22T02:18:26;95868.72;;;0.19;100.00
25658;BME280;13517;59.320;18.042;2023-12-22T02:20:55;95863.13;;;0.22;100.00
25658;BME280;13517;59.320;18.042;2023-12-22T02:23:21;95828.72;;;0.12;100.00
25658;BME280;13517;59.320;18.042;2023-12-22T02:25:48;95845.16;;;0.16;100.00
25658;BME280;13517;59.320;18.042;2023-12-22T02:28:17;95881.84;;;0.20;100.00
25658;BME280;13517;59.320;18.042;2023-12-22T02:30:56;95838.66;;;0.10;100.00
25658;BME280;13517;59.320;18.042;2023-12-22T02:33:27;95838.88;;;0.17;100.00
25658;BME280;13517;59.320;18.042;2023-12-22T02:35:57;95830.53;;;0.11;100.00
25658;BME280;13517;59.320;18.042;2023-12-22T02:38:25;95842.66;;;0.14;100.00
25658;BME280;13517;59.320;18.042;2023-12-22T02:40:51;95860.75;;;0.19;100.00
25658;BME280;13517;59.320;18.042;2023-12-22T02:43:16;95866.91;;;0.19;100.00
25658;BME280;13517;59.320;18.042;2023-12-22T02:45:42;95834.91;;;0.21;100.00
25658;BME280;13517;59.320;18.042;2023-12-22T02:48:07;95827.94;;;0.20;100.00
25658;BME280;13517;59.320;18.042;2023-12-22T02:50:33;95859.72;;;0.11;100.00
25658;BME280;13517;59.320;18.042;2023-12-22T02:52:58;95845.47;;;0.12;100.00
25658;BME280;13517;59.320;18.042;2023-12-22T02:55:23;95819.16;;;0.19;100.00
25658;BME280;13517;59.320;18.042;2023-12-22T02:57:49;95836.22;;;0.17;100.00
25658;BME280;13517;59.320;18.042;2023-12-22T03:00:14;95868.25;;;0.23;100.00
25658;BME280;13517;59.320;18.042;2023-12-22T03:02:39;95874.19;;;0.17;100.00
25658;BME280;13517;59.320;18.042;2023-12-22T03:05:05;95870.03;;;0.15;100.00
25658;BME280;13517;59.320;18.042;2023-12-22T03:07:31;95861.16;;;0.24;100.00
25658;BME280;13517;59.320;18.042;2023-12-22T03:09:56;95865.78;;;0.22;100.00
25658;BME280;13517;59.320;18.042;2023-12-22T03:12:22;95864.09;;;0.21;100.00
25658;BME280;13517;59.320;18.042;2023-12-22T03:14:47;95864.09;;;0.21;100.00
25658;BME280;13517;59.320;18.042;2023-12-22T03:17:12;95867.00;;;0.09;100.00
25658;BME280;13517;59.320;18.042;2023-12-22T03:19:39;95889.13;;;0.18;100.00
25658;BME280;13517;59.320;18.042;2023-12-22T03:22:04;95885.63;;;0.18;100.00
25658;BME280;13517;59.320;18.042;2023-12-22T03:24:30;95887.28;;;0.19;100.00
25658;BME280;13517;59.320;18.042;2023-12-22T03:26:55;95882.97;;;0.18;100.00
25658;BME280;13517;59.320;18.042;2023-12-22T03:29:20;95886.91;;;0.13;100.00
25658;BME280;13517;59.320;18.042;2023-12-22T03:31:46;95892.22;;;0.13;100.00
25658;BME280;13517;59.320;18.042;2023-12-22T03:34:12;95894.34;;;0.10;100.00
25658;BME280;13517;59.320;18.042;2023-12-22T03:36:38;95875.97;;;0.08;100.00
25658;BME280;13517;59.320;18.042;2023-12-22T03:39:03;95921.59;;;0.12;100.00
25658;BME280;13517;59.320;18.042;2023-12-22T03:41:30;95895.19;;;0.10;100.00
25658;BME280;13517;59.320;18.042;2023-12-22T03:43:58;95863.00;;;0.05;100.00
25658;BME280;13517;59.320;18.042;2023-12-22T03:46:24;95913.09;;;0.08;100.00
25658;BME280;13517;59.320;18.042;2023-12-22T03:48:52;95898.53;;;-0.06;100.00
25658;BME280;13517;59.320;18.042;2023-12-22T03:51:18;95901.50;;;-0.09;100.00
25658;BME280;13517;59.320;18.042;2023-12-22T03:53:43;95922.47;;;0.03;100.00
25658;BME280;13517;59.320;18.042;2023-12-22T03:56:09;95896.41;;;-0.02;100.00
25658;BME280;13517;59.320;18.042;2023-12-22T03:58:35;95920.66;;;0.03;100.00
25658;BME280;13517;59.320;18.042;2023-12-22T04:01:01;95912.31;;;-0.02;100.00
25658;BME280;13517;59.320;18.042;2023-12-22T04:03:26;95915.97;;;-0.03;100.00
25658;BME280;13517;59.320;18.042;2023-12-22T04:05:52;95907.03;;;-0.02;100.00
25658;BME280;13517;59.320;18.042;2023-12-22T04:08:17;95925.91;;;-0.05;100.00
25658;BME280;13517;59.320;18.042;2023-12-22T04:10:43;95955.06;;;-0.05;100.00
25658;BME280;13517;59.320;18.042;2023-12-22T04:13:09;95938.19;;;-0.04;100.00
25658;BME280;13517;59.320;18.042;2023-12-22T04:15:35;95947.41;;;-0.08;100.00
25658;BME280;13517;59.320;18.042;2023-12-22T04:18:00;95924.16;;;-0.15;100.00
25658;BME280;13517;59.320;18.042;2023-12-22T04:20:26;95931.22;;;-0.05;100.00
25658;BME280;13517;59.320;18.042;2023-12-22T04:22:51;95928.84;;;-0.08;100.00
25658;BME280;13517;59.320;18.042;2023-12-22T04:25:16;95917.69;;;-0.12;100.00
25658;BME280;13517;59.320;18.042;2023-12-22T04:27:43;95926.72;;;-0.23;100.00
25658;BME280;13517;59.320;18.042;2023-12-22T04:30:08;95934.53;;;-0.21;100.00
25658;BME280;13517;59.320;18.042;2023-12-22T04:32:34;95967.41;;;-0.14;100.00
25658;BME280;13517;59.320;18.042;2023-12-22T04:34:59;95951.88;;;-0.27;100.00
25658;BME280;13517;59.320;18.042;2023-12-22T04:37:25;95944.81;;;-0.36;100.00
25658;BME280;13517;59.320;18.042;2023-12-22T04:39:50;95942.91;;;-0.44;100.00
25658;BME280;13517;59.320;18.042;2023-12-22T04:42:16;95974.81;;;-0.36;100.00
25658;BME280;13517;59.320;18.042;2023-12-22T04:44:41;95973.34;;;-0.48;100.00
25658;BME280;13517;59.320;18.042;2023-12-22T04:47:06;95971.72;;;-0.59;100.00
25658;BME280;13517;59.320;18.042;2023-12-22T04:49:32;95971.03;;;-0.61;100.00
25658;BME280;13517;59.320;18.042;2023-12-22T04:51:57;95973.94;;;-0.55;100.00
25658;BME280;13517;59.320;18.042;2023-12-22T04:54:23;95982.41;;;-0.51;100.00
25658;BME280;13517;59.320;18.042;2023-12-22T04:56:48;95980.88;;;-0.53;100.00
25658;BME280;13517;59.320;18.042;2023-12-22T04:59:13;95996.97;;;-0.55;100.00
25658;BME280;13517;59.320;18.042;2023-12-22T05:01:39;96002.53;;;-0.58;100.00
25658;BME280;13517;59.320;18.042;2023-12-22T05:04:04;95991.94;;;-0.58;100.00
25658;BME280;13517;59.320;18.042;2023-12-22T05:06:30;95996.69;;;-0.62;100.00
25658;BME280;13517;59.320;18.042;2023-12-22T05:08:55;95983.22;;;-0.69;100.00
25658;BME280;13517;59.320;18.042;2023-12-22T05:11:22;96003.66;;;-0.61;100.00
25658;BME280;13517;59.320;18.042;2023-12-22T05:13:47;96014.44;;;-0.62;100.00
25658;BME280;13517;59.320;18.042;2023-12-22T05:16:13;96010.22;;;-0.55;100.00
25658;BME280;13517;59.320;18.042;2023-12-22T05:18:39;96034.06;;;-0.55;100.00
25658;BME280;13517;59.320;18.042;2023-12-22T05:21:04;96046.88;;;-0.50;100.00
25658;BME280;13517;59.320;18.042;2023-12-22T05:23:29;96033.97;;;-0.63;100.00
25658;BME280;13517;59.320;18.042;2023-12-22T05:25:55;96022.16;;;-0.51;100.00
25658;BME280;13517;59.320;18.042;2023-12-22T05:28:20;96031.09;;;-0.52;100.00
25658;BME280;13517;59.320;18.042;2023-12-22T05:30:46;96047.84;;;-0.51;100.00
25658;BME280;13517;59.320;18.042;2023-12-22T05:33:12;96054.97;;;-0.52;100.00
25658;BME280;13517;59.320;18.042;2023-12-22T05:35:38;96016.22;;;-0.63;100.00
25658;BME280;13517;59.320;18.042;2023-12-22T05:38:03;96055.81;;;-0.51;100.00
25658;BME280;13517;59.320;18.042;2023-12-22T05:40:31;96039.50;;;-0.57;100.00
25658;BME280;13517;59.320;18.042;2023-12-22T05:42:56;96059.28;;;-0.51;100.00
25658;BME280;13517;59.320;18.042;2023-12-22T05:45:22;96055.63;;;-0.50;100.00
25658;BME280;13517;59.320;18.042;2023-12-22T05:47:47;96056.66;;;-0.61;100.00
25658;BME280;13517;59.320;18.042;2023-12-22T05:50:13;96071.25;;;-0.47;100.00
25658;BME280;13517;59.320;18.042;2023-12-22T05:52:38;96089.81;;;-0.47;100.00
25658;BME280;13517;59.320;18.042;2023-12-22T05:55:04;96083.94;;;-0.40;100.00
25658;BME280;13517;59.320;18.042;2023-12-22T05:57:29;96091.47;;;-0.46;100.00
25658;BME280;13517;59.320;18.042;2023-12-22T05:59:55;96095.13;;;-0.47;100.00
25658;BME280;13517;59.320;18.042;2023-12-22T06:02:20;96115.75;;;-0.40;100.00
25658;BME280;13517;59.320;18.042;2023-12-22T06:04:46;96112.97;;;-0.39;100.00
25658;BME280;13517;59.320;18.042;2023-12-22T06:07:11;96122.31;;;-0.45;100.00
25658;BME280;13517;59.320;18.042;2023-12-22T06:09:37;96116.19;;;-0.45;100.00
25658;BME280;13517;59.320;18.042;2023-12-22T06:12:02;96102.34;;;-0.39;100.00
25658;BME280;13517;59.320;18.042;2023-12-22T06:14:28;96109.03;;;-0.35;100.00
25658;BME280;13517;59.320;18.042;2023-12-22T06:16:53;96132.75;;;-0.33;100.00
25658;BME280;13517;59.320;18.042;2023-12-22T06:19:21;96142.38;;;-0.32;100.00
25658;BME280;13517;59.320;18.042;2023-12-22T06:21:49;96126.47;;;-0.32;100.00
25658;BME280;13517;59.320;18.042;2023-12-22T06:24:14;96116.28;;;-0.37;100.00
25658;BME280;13517;59.320;18.042;2023-12-22T06:26:40;96136.66;;;-0.37;100.00
25658;BME280;13517;59.320;18.042;2023-12-22T06:29:05;96161.22;;;-0.35;100.00
25658;BME280;13517;59.320;18.042;2023-12-22T06:31:30;96152.66;;;-0.29;100.00
25658;BME280;13517;59.320;18.042;2023-12-22T06:33:56;96145.31;;;-0.35;100.00
25658;BME280;13517;59.320;18.042;2023-12-22T06:36:27;96177.38;;;-0.29;100.00
25658;BME280;13517;59.320;18.042;2023-12-22T06:38:53;96170.28;;;-0.28;100.00
25658;BME280;13517;59.320;18.042;2023-12-22T06:41:27;96165.53;;;-0.34;100.00
25658;BME280;13517;59.320;18.042;2023-12-22T06:43:54;96173.06;;;-0.39;100.00
25658;BME280;13517;59.320;18.042;2023-12-22T06:46:24;96168.56;;;-0.29;100.00
25658;BME280;13517;59.320;18.042;2023-12-22T06:48:53;96188.81;;;-0.28;100.00
25658;BME280;13517;59.320;18.042;2023-12-22T06:51:24;96194.25;;;-0.30;100.00
25658;BME280;13517;59.320;18.042;2023-12-22T06:53:51;96188.41;;;-0.33;100.00
25658;BME280;13517;59.320;18.042;2023-12-22T06:56:21;96197.34;;;-0.34;100.00
25658;BME280;13517;59.320;18.042;2023-12-22T06:58:48;96198.59;;;-0.38;100.00
25658;BME280;13517;59.320;18.042;2023-12-22T07:01:31;96203.09;;;-0.39;100.00
25658;BME280;13517;59.320;18.042;2023-12-22T07:03:58;96226.09;;;-0.39;100.00
25658;BME280;13517;59.320;18.042;2023-12-22T07:06:27;96210.06;;;-0.48;100.00
25658;BME280;13517;59.320;18.042;2023-12-22T07:11:46;96241.59;;;-0.55;100.00
25658;BME280;13517;59.320;18.042;2023-12-22T07:14:11;96215.81;;;-0.52;100.00
25658;BME280;13517;59.320;18.042;2023-12-22T07:16:37;96228.75;;;-0.59;100.00
25658;BME280;13517;59.320;18.042;2023-12-22T07:19:04;96248.00;;;-0.57;100.00
25658;BME280;13517;59.320;18.042;2023-12-22T07:21:29;96248.16;;;-0.49;100.00
25658;BME280;13517;59.320;18.042;2023-12-22T07:23:55;96269.50;;;-0.50;100.00
25658;BME280;13517;59.320;18.042;2023-12-22T07:26:20;96254.72;;;-0.63;100.00
25658;BME280;13517;59.320;18.042;2023-12-22T07:28:49;96273.38;;;-0.55;100.00
25658;BME280;13517;59.320;18.042;2023-12-22T07:31:15;96279.25;;;-0.51;100.00
25658;BME280;13517;59.320;18.042;2023-12-22T07:33:40;96277.31;;;-0.49;100.00
25658;BME280;13517;59.320;18.042;2023-12-22T07:36:06;96275.47;;;-0.48;100.00
25658;BME280;13517;59.320;18.042;2023-12-22T07:38:32;96278.97;;;-0.48;100.00
25658;BME280;13517;59.320;18.042;2023-12-22T07:40:58;96289.59;;;-0.48;100.00
25658;BME280;13517;59.320;18.042;2023-12-22T07:43:24;96292.38;;;-0.49;100.00
25658;BME280;13517;59.320;18.042;2023-12-22T07:45:49;96293.59;;;-0.44;100.00
25658;BME280;13517;59.320;18.042;2023-12-22T07:48:16;96288.75;;;-0.48;100.00
25658;BME280;13517;59.320;18.042;2023-12-22T07:50:41;96283.16;;;-0.55;100.00
25658;BME280;13517;59.320;18.042;2023-12-22T07:53:07;96301.31;;;-0.50;100.00
25658;BME280;13517;59.320;18.042;2023-12-22T07:55:33;96286.94;;;-0.48;100.00
25658;BME280;13517;59.320;18.042;2023-12-22T07:57:59;96303.38;;;-0.54;100.00
25658;BME280;13517;59.320;18.042;2023-12-22T08:00:24;96310.06;;;-0.50;100.00
25658;BME280;13517;59.320;18.042;2023-12-22T08:02:50;96330.03;;;-0.56;100.00
25658;BME280;13517;59.320;18.042;2023-12-22T08:05:17;96311.03;;;-0.61;100.00
25658;BME280;13517;59.320;18.042;2023-12-22T08:07:43;96319.97;;;-0.52;100.00
25658;BME280;13517;59.320;18.042;2023-12-22T08:10:09;96325.97;;;-0.50;100.00
25658;BME280;13517;59.320;18.042;2023-12-22T08:12:35;96316.91;;;-0.57;100.00
25658;BME280;13517;59.320;18.042;2023-12-22T08:15:00;96337.84;;;-0.54;100.00
25658;BME280;13517;59.320;18.042;2023-12-22T08:17:26;96335.63;;;-0.49;100.00
25658;BME280;13517;59.320;18.042;2023-12-22T08:19:52;96355.13;;;-0.50;100.00
25658;BME280;13517;59.320;18.042;2023-12-22T08:22:17;96347.59;;;-0.55;100.00
25658;BME280;13517;59.320;18.042;2023-12-22T08:24:42;96371.03;;;-0.50;100.00
25658;BME280;13517;59.320;18.042;2023-12-22T08:27:08;96354.72;;;-0.55;100.00
25658;BME280;13517;59.320;18.042;2023-12-22T08:29:34;96361.28;;;-0.49;100.00
25658;BME280;13517;59.320;18.042;2023-12-22T08:32:00;96348.72;;;-0.57;100.00
25658;BME280;13517;59.320;18.042;2023-12-22T08:34:29;96352.47;;;-0.50;100.00
25658;BME280;13517;59.320;18.042;2023-12-22T08:36:54;96345.94;;;-0.56;100.00
25658;BME280;13517;59.320;18.042;2023-12-22T08:39:20;96333.94;;;-0.60;100.00
25658;BME280;13517;59.320;18.042;2023-12-22T08:41:46;96367.69;;;-0.52;100.00
25658;BME280;13517;59.320;18.042;2023-12-22T08:44:12;96353.06;;;-0.56;100.00
25658;BME280;13517;59.320;18.042;2023-12-22T08:46:39;96361.13;;;-0.58;100.00
25658;BME280;13517;59.320;18.042;2023-12-22T08:49:05;96385.13;;;-0.49;100.00
25658;BME280;13517;59.320;18.042;2023-12-22T08:51:31;96359.75;;;-0.52;100.00
25658;BME280;13517;59.320;18.042;2023-12-22T08:53:56;96380.50;;;-0.57;100.00
25658;BME280;13517;59.320;18.042;2023-12-22T08:56:22;96395.75;;;-0.49;100.00
25658;BME280;13517;59.320;18.042;2023-12-22T08:58:48;96384.16;;;-0.48;100.00
25658;BME280;13517;59.320;18.042;2023-12-22T09:01:17;96393.09;;;-0.49;100.00
25658;BME280;13517;59.320;18.042;2023-12-22T09:03:43;96370.19;;;-0.60;100.00
25658;BME280;13517;59.320;18.042;2023-12-22T09:06:18;96373.00;;;-0.52;100.00
25658;BME280;13517;59.320;18.042;2023-12-22T09:08:44;96383.88;;;-0.55;100.00
25658;BME280;13517;59.320;18.042;2023-12-22T09:11:15;96380.53;;;-0.47;100.00
25658;BME280;13517;59.320;18.042;2023-12-22T09:13:41;96417.63;;;-0.47;100.00
25658;BME280;13517;59.320;18.042;2023-12-22T09:16:08;96392.22;;;-0.50;100.00
25658;BME280;13517;59.320;18.042;2023-12-22T09:18:34;96389.47;;;-0.48;100.00
25658;BME280;13517;59.320;18.042;2023-12-22T09:21:00;96395.59;;;-0.48;100.00
25658;BME280;13517;59.320;18.042;2023-12-22T09:23:25;96384.28;;;-0.50;100.00
25658;BME280;13517;59.320;18.042;2023-12-22T09:25:51;96409.13;;;-0.51;100.00
25658;BME280;13517;59.320;18.042;2023-12-22T09:28:16;96380.69;;;-0.49;100.00
25658;BME280;13517;59.320;18.042;2023-12-22T09:30:42;96386.69;;;-0.47;100.00
25658;BME280;13517;59.320;18.042;2023-12-22T09:33:09;96392.97;;;-0.48;100.00
25658;BME280;13517;59.320;18.042;2023-12-22T09:35:34;96436.06;;;-0.46;100.00
25658;BME280;13517;59.320;18.042;2023-12-22T09:38:00;96391.97;;;-0.57;100.00
25658;BME280;13517;59.320;18.042;2023-12-22T09:40:26;96412.50;;;-0.49;100.00
25658;BME280;13517;59.320;18.042;2023-12-22T09:42:54;96402.84;;;-0.50;100.00
25658;BME280;13517;59.320;18.042;2023-12-22T09:45:21;96420.41;;;-0.59;100.00
25658;BME280;13517;59.320;18.042;2023-12-22T09:47:48;96406.63;;;-0.52;100.00
25658;BME280;13517;59.320;18.042;2023-12-22T09:50:14;96402.41;;;-0.65;100.00
25658;BME280;13517;59.320;18.042;2023-12-22T09:52:42;96414.97;;;-0.57;100.00
25658;BME280;13517;59.320;18.042;2023-12-22T09:55:09;96409.81;;;-0.59;100.00
25658;BME280;13517;59.320;18.042;2023-12-22T09:57:37;96435.22;;;-0.56;100.00
25658;BME280;13517;59.320;18.042;2023-12-22T10:00:06;96436.88;;;-0.55;100.00
25658;BME280;13517;59.320;18.042;2023-12-22T10:02:33;96420.97;;;-0.55;100.00
25658;BME280;13517;59.320;18.042;2023-12-22T10:05:03;96441.22;;;-0.54;100.00
25658;BME280;13517;59.320;18.042;2023-12-22T10:07:30;96425.44;;;-0.56;100.00
25658;BME280;13517;59.320;18.042;2023-12-22T10:09:56;96405.34;;;-0.58;100.00
25658;BME280;13517;59.320;18.042;2023-12-22T10:12:22;96423.47;;;-0.53;100.00
25658;BME280;13517;59.320;18.042;2023-12-22T10:14:48;96429.63;;;-0.53;100.00
25658;BME280;13517;59.320;18.042;2023-12-22T10:17:14;96410.94;;;-0.61;100.00
25658;BME280;13517;59.320;18.042;2023-12-22T10:19:40;96448.19;;;-0.53;100.00
25658;BME280;13517;59.320;18.042;2023-12-22T10:22:05;96411.34;;;-0.66;100.00
25658;BME280;13517;59.320;18.042;2023-12-22T10:24:40;96445.41;;;-0.51;100.00
25658;BME280;13517;59.320;18.042;2023-12-22T10:27:10;96431.88;;;-0.48;100.00
25658;BME280;13517;59.320;18.042;2023-12-22T10:29:36;96433.53;;;-0.47;100.00
25658;BME280;13517;59.320;18.042;2023-12-22T10:32:03;96416.91;;;-0.59;100.00
25658;BME280;13517;59.320;18.042;2023-12-22T10:34:29;96431.59;;;-0.55;100.00
25658;BME280;13517;59.320;18.042;2023-12-22T10:36:55;96436.34;;;-0.49;100.00
25658;BME280;13517;59.320;18.042;2023-12-22T10:39:20;96436.84;;;-0.65;100.00
25658;BME280;13517;59.320;18.042;2023-12-22T10:41:47;96419.03;;;-0.53;100.00
25658;BME280;13517;59.320;18.042;2023-12-22T10:44:14;96418.59;;;-0.58;100.00
25658;BME280;13517;59.320;18.042;2023-12-22T10:46:40;96438.84;;;-0.47;100.00
25658;BME280;13517;59.320;18.042;2023-12-22T10:49:08;96450.28;;;-0.47;100.00
25658;BME280;13517;59.320;18.042;2023-12-22T10:51:33;96441.09;;;-0.52;100.00
25658;BME280;13517;59.320;18.042;2023-12-22T10:53:59;96446.94;;;-0.49;100.00
25658;BME280;13517;59.320;18.042;2023-12-22T10:56:25;96447.91;;;-0.50;100.00
25658;BME280;13517;59.320;18.042;2023-12-22T10:58:51;96452.28;;;-0.39;100.00
25658;BME280;13517;59.320;18.042;2023-12-22T11:01:17;96455.59;;;-0.47;100.00
25658;BME280;13517;59.320;18.042;2023-12-22T11:03:44;96426.97;;;-0.53;100.00
25658;BME280;13517;59.320;18.042;2023-12-22T11:06:12;96413.31;;;-0.48;100.00
25658;BME280;13517;59.320;18.042;2023-12-22T11:08:40;96428.41;;;-0.49;100.00
25658;BME280;13517;59.320;18.042;2023-12-22T11:11:15;96431.31;;;-0.42;100.00
25658;BME280;13517;59.320;18.042;2023-12-22T11:13:43;96431.75;;;-0.47;100.00
25658;BME280;13517;59.320;18.042;2023-12-22T11:16:09;96443.72;;;-0.43;100.00
25658;BME280;13517;59.320;18.042;2023-12-22T11:18:36;96448.09;;;-0.42;100.00
25658;BME280;13517;59.320;18.042;2023-12-22T11:21:05;96447.09;;;-0.40;100.00
25658;BME280;13517;59.320;18.042;2023-12-22T11:23:31;96463.13;;;-0.42;100.00
25658;BME280;13517;59.320;18.042;2023-12-22T11:25:58;96435.66;;;-0.41;100.00
25658;BME280;13517;59.320;18.042;2023-12-22T11:28:24;96434.66;;;-0.40;100.00
25658;BME280;13517;59.320;18.042;2023-12-22T11:30:51;96432.97;;;-0.51;100.00
25658;BME280;13517;59.320;18.042;2023-12-22T11:33:18;96437.59;;;-0.43;100.00
25658;BME280;13517;59.320;18.042;2023-12-22T11:35:45;96434.94;;;-0.53;100.00
25658;BME280;13517;59.320;18.042;2023-12-22T11:38:11;96433.13;;;-0.52;100.00
25658;BME280;13517;59.320;18.042;2023-12-22T11:40:36;96438.56;;;-0.54;100.00
25658;BME280;13517;59.320;18.042;2023-12-22T11:43:02;96459.91;;;-0.46;100.00
25658;BME280;13517;59.320;18.042;2023-12-22T11:45:31;96450.53;;;-0.50;100.00
25658;BME280;13517;59.320;18.042;2023-12-22T11:48:05;96459.91;;;-0.46;100.00
25658;BME280;13517;59.320;18.042;2023-12-22T11:50:30;96464.53;;;-0.48;100.00
25658;BME280;13517;59.320;18.042;2023-12-22T11:52:56;96463.09;;;-0.52;100.00
25658;BME280;13517;59.320;18.042;2023-12-22T11:55:59;96473.47;;;-0.49;100.00
25658;BME280;13517;59.320;18.042;2023-12-22T11:58:45;96460.03;;;-0.47;100.00
25658;BME280;13517;59.320;18.042;2023-12-22T12:01:19;96466.88;;;-0.45;100.00
25658;BME280;13517;59.320;18.042;2023-12-22T12:03:48;96467.00;;;-0.46;100.00
25658;BME280;13517;59.320;18.042;2023-12-22T12:06:17;96451.81;;;-0.54;100.00
25658;BME280;13517;59.320;18.042;2023-12-22T12:08:47;96453.59;;;-0.55;100.00
25658;BME280;13517;59.320;18.042;2023-12-22T12:11:14;96459.31;;;-0.59;100.00
25658;BME280;13517;59.320;18.042;2023-12-22T12:13:42;96470.81;;;-0.49;100.00
25658;BME280;13517;59.320;18.042;2023-12-22T12:16:10;96478.75;;;-0.49;100.00
25658;BME280;13517;59.320;18.042;2023-12-22T12:18:36;96435.19;;;-0.66;100.00
25658;BME280;13517;59.320;18.042;2023-12-22T12:21:01;96486.28;;;-0.54;100.00
25658;BME280;13517;59.320;18.042;2023-12-22T12:23:27;96453.56;;;-0.64;100.00
25658;BME280;13517;59.320;18.042;2023-12-22T12:25:56;96472.56;;;-0.59;100.00
25658;BME280;13517;59.320;18.042;2023-12-22T12:28:29;96482.03;;;-0.66;100.00
25658;BME280;13517;59.320;18.042;2023-12-22T12:31:05;96495.44;;;-0.58;100.00
25658;BME280;13517;59.320;18.042;2023-12-22T12:33:31;96467.22;;;-0.69;100.00
25658;BME280;13517;59.320;18.042;2023-12-22T12:35:58;96502.00;;;-0.62;100.00
25658;BME280;13517;59.320;18.042;2023-12-22T12:41:27;96492.50;;;-0.65;100.00
25658;BME280;13517;59.320;18.042;2023-12-22T12:43:54;96485.66;;;-0.67;100.00
25658;BME280;13517;59.320;18.042;2023-12-22T12:46:21;96485.09;;;-0.71;100.00